首页
METAR-TAF:

METAR-TAF

机场 :

Savannah/Hilton Head International Airport

薩凡納, 喬治亞, 美国

纬度: 32-07-08N, 经度: 081-12-08W, 海拔: 15米

当前天气观测

该预报发布于22分钟前的21:53 UTC
风速8节,风向西南
温度 19°C
湿度 46%
气压 1012 hPa
能見度: 16.1公里
散云层高于12000英尺
多云层高于18000英尺
阴天层高于22000英尺

METAR: KSAV 152153Z 23008KT 10SM SCT120 BKN180 OVC220 19/07 A2989 RMK AO2 SLP121 T01940067

时间: 17:15 (22:15 UTC)

预报

该预报发布于4小时和55分钟前的17:20 UTC
预报有效从15日的 18点(UTC)到 16日的 18点(UTC)
风速7节,风向南转西南
能見度: 10公里
散云层高于10000英尺
多云层高于20000英尺
从 16日的 0400点(UTC)
风速7节,风向
能見度: 10公里
散云层高于5000英尺
多云层高于10000英尺
附近有阵雨
从 16日的 1200点(UTC)
风速9节,风向西南
能見度: 10公里
散云层高于2500英尺
阴天层高于5000英尺

TAF: KSAV 151720Z 1518/1618 21007KT P6SM SCT100 BKN200 FM160400 19007KT P6SM VCSH SCT050 BKN100 FM161200 22009KT P6SM SCT025 OVC050

超过4000个机场的气象观测和天气预报(METAR&TAF报告)。

可查询的气象台以黄色和红色小点在地图上表示。

将鼠标移到小点上方,可查看气象台名称。

然后点击查看天气观测和预报。

如需切换地图:点击带黑十字的绿色按钮放大地图;点击带横线的绿色按钮缩小地图;或者点击绿色箭头查看邻近地区的地图。


METAR-TAF: